Terminal Aerodrome Forecast
Issued by NWS

Home | Current Version | Previous Version | Graphics & Text | Print | Product List | Glossary On
Versions: 1 2 3 4 5 6 7 8 9 10 11 12 13 14 15 16
041
FTUS45 KGGW 061731
TAFSDY
TAF
KSDY 061731Z 0618/0718 31020G30KT P6SM BKN016
     FM062300 30012KT P6SM SCT020
     FM070300 29013KT P6SM OVC015
     FM071300 30012KT P6SM BKN015=

USA.gov is the U.S. government's official web portal to all federal, state and local government web resources and services.